M/V Ian Earle — WDD9798 — position and weather

sailwx.info

Track history (hours):
 
Tides and Currents Weather Stations Pressure Air Temp Water Temp Dewpoint Dewpoint Depression Visibility Wind Speed Wind Dir Waves Ship Positions

M/V Ian Earle

Owner: The Tug Ian Earle, L.L.C., Channelview, TX. More information available from US FCC via Universal Licensing System and Coast Guard Vessel Documentation Center.

Last reported at 2017-Sep-23 21:58 UTC. Time now 2017-Sep-24 00:00 UTC.
Position N 29°44' W 095°07'.

Length 23 m.

Type: Other ship. MMSI: 367316480.

Date/timePositionNaut miles runAvg speedWind from/ knotsBaromVisibWave heightAir tempDewpointWater temp
2017-Sep-23 21:58N 29°44' W 095°07'3 5.5
2017-Sep-23 21:30N 29°44' W 095°10'2 3.8
2017-Sep-23 21:00N 29°45' W 095°12'2 3.1
2017-Sep-23 20:29N 29°45' W 095°10'3 5.2
2017-Sep-23 19:56N 29°44' W 095°07'2 0.1
2017-Sep-22 01:13N 29°45' W 095°04'2 7.1
2017-Sep-22 01:00N 29°44' W 095°03'0 0.3
2017-Sep-22 00:30N 29°44' W 095°03'0 0.2
2017-Sep-22 00:00N 29°44' W 095°03'0 0.0
2017-Sep-21 23:30N 29°44' W 095°03'0 0.0
2017-Sep-21 23:00N 29°44' W 095°03'1 1.8
2017-Sep-21 22:30N 29°45' W 095°04'1 1.2
2017-Sep-21 22:00N 29°45' W 095°04'1 0.3
2017-Sep-21 16:40N 29°46' W 095°05'1 5.7
2017-Sep-21 16:29N 29°47' W 095°05'1 1.4
2017-Sep-21 15:45N 29°47' W 095°04'0 0.0
2017-Sep-21 15:19N 29°47' W 095°04'0 0.0
2017-Sep-21 15:00N 29°47' W 095°04'0 0.0
2017-Sep-21 14:30N 29°47' W 095°04'0 0.0
2017-Sep-21 14:00N 29°47' W 095°04'0 0.1
2017-Sep-21 12:44N 29°47' W 095°04'0 0.1
2017-Sep-21 12:30N 29°47' W 095°04'0 0.1
2017-Sep-21 11:28N 29°47' W 095°04'0 0.0
2017-Sep-21 10:42N 29°47' W 095°04'0 0.0
2017-Sep-21 10:30N 29°47' W 095°04'0 0.0
2017-Sep-21 09:50N 29°47' W 095°04'0 0.0
2017-Sep-21 09:27N 29°47' W 095°04'2 2.4
2017-Sep-21 08:49N 29°46' W 095°05'0 0.6
2017-Sep-21 08:01N 29°46' W 095°04'4 6.3
2017-Sep-21 07:25N 29°43' W 095°01'3 6.4
2017-Sep-21 07:01N 29°41' W 094°59'4 7.8
2017-Sep-21 06:31N 29°38' W 094°58'2 4.7
2017-Sep-21 06:00N 29°37' W 095°00'1 1.8
2017-Sep-21 05:31N 29°37' W 095°01'0 0.0
2017-Sep-21 05:01N 29°37' W 095°01'0 0.0
2017-Sep-21 04:30N 29°37' W 095°01'0 0.0
2017-Sep-21 04:01N 29°37' W 095°01'0 0.0
2017-Sep-21 03:31N 29°37' W 095°01'0 0.0
2017-Sep-21 03:00N 29°37' W 095°01'0 0.0
2017-Sep-21 02:30N 29°37' W 095°01'0 0.0
2017-Sep-21 02:00N 29°37' W 095°01'0 0.0
2017-Sep-21 01:31N 29°37' W 095°01'0 0.0
2017-Sep-21 01:00N 29°37' W 095°01'0 0.0
2017-Sep-21 00:31N 29°37' W 095°01'0 0.0
2017-Sep-21 00:00N 29°37' W 095°01'0 0.0
2017-Sep-20 23:31N 29°37' W 095°01'0 0.0
2017-Sep-20 23:01N 29°37' W 095°01'0 0.0
2017-Sep-20 22:30N 29°37' W 095°01'0 0.4
2017-Sep-20 22:00N 29°37' W 095°01'0 0.3
2017-Sep-20 21:31N 29°37' W 095°01'0 0.0
2017-Sep-20 21:00N 29°37' W 095°01'0 0.0
2017-Sep-20 20:30N 29°37' W 095°01'0 0.1
2017-Sep-20 20:01N 29°37' W 095°01'3 5.3
2017-Sep-20 19:31N 29°37' W 094°58'3 6.2
2017-Sep-20 19:01N 29°40' W 094°59'4 7.4
2017-Sep-20 18:30N 29°43' W 095°01'3 6.0
2017-Sep-20 17:58N 29°45' W 095°04'2 4.3
2017-Sep-20 17:29N 29°45' W 095°06'3 5.7
2017-Sep-20 17:00N 29°44' W 095°09'2 3.2
2017-Sep-20 16:30N 29°45' W 095°11'0 0.0
2017-Sep-20 16:00N 29°45' W 095°11'2 4.7
2017-Sep-20 15:31N 29°44' W 095°13'3 4.3
2017-Sep-20 14:43N 29°45' W 095°17'0 0.1
2017-Sep-20 14:00N 29°45' W 095°17'0 0.0
2017-Sep-20 08:43N 29°45' W 095°17'0 0.0
2017-Sep-20 08:30N 29°45' W 095°17'0 0.0
2017-Sep-20 07:57N 29°45' W 095°17'0 0.0
2017-Sep-20 07:29N 29°45' W 095°17'0 0.0
2017-Sep-20 07:00N 29°45' W 095°17'0 0.0
2017-Sep-20 06:31N 29°45' W 095°17'0 0.0
2017-Sep-20 06:00N 29°45' W 095°17'0 0.0
2017-Sep-20 05:28N 29°45' W 095°17'0 0.0
2017-Sep-20 04:56N 29°45' W 095°17'0 0.0
2017-Sep-20 00:35N 29°45' W 095°17'5 3.1
2017-Sep-19 22:55N 29°45' W 095°11'0 0.0
2017-Sep-19 22:30N 29°45' W 095°11'0 0.0
2017-Sep-19 22:00N 29°45' W 095°11'0 0.0
2017-Sep-19 21:30N 29°45' W 095°11'0 0.0
2017-Sep-19 20:53N 29°45' W 095°11'0 0.0
2017-Sep-19 20:30N 29°45' W 095°11'0 0.0
2017-Sep-19 20:00N 29°45' W 095°11'0 0.0
2017-Sep-19 19:30N 29°45' W 095°11'0 0.0
2017-Sep-19 19:00N 29°45' W 095°11'0 0.0
2017-Sep-19 18:30N 29°45' W 095°11'0 0.0
2017-Sep-19 18:00N 29°45' W 095°11'0 0.0
2017-Sep-19 17:30N 29°45' W 095°11'0 0.0
2017-Sep-19 16:59N 29°45' W 095°11'0 0.0
2017-Sep-19 16:30N 29°45' W 095°11'0 0.0
2017-Sep-19 15:55N 29°45' W 095°11'1 0.8
2017-Sep-19 15:13N 29°45' W 095°11'1 3.0
2017-Sep-19 14:59N 29°45' W 095°10'2 3.4
2017-Sep-19 14:30N 29°44' W 095°08'1 0.6
2017-Sep-19 12:35N 29°44' W 095°07'1 5.0
2017-Sep-19 12:27N 29°45' W 095°06'2 4.0
2017-Sep-19 11:56N 29°46' W 095°05'1 3.1
2017-Sep-19 11:29N 29°47' W 095°04'4 2.0
2017-Sep-19 09:31N 29°44' W 095°07'0 5.6
2017-Sep-19 09:30N 29°44' W 095°07'3 5.5
2017-Sep-19 09:00N 29°45' W 095°10'3 5.0
2017-Sep-19 08:22N 29°44' W 095°13'0 0.2
2017-Sep-19 06:22N 29°44' W 095°14'2 5.2
2017-Sep-19 05:59N 29°45' W 095°12'2 2.0
2017-Sep-19 05:12N 29°45' W 095°10'1 3.3
2017-Sep-19 04:56N 29°44' W 095°09'3 4.4
2017-Sep-19 04:19N 29°45' W 095°06'1 3.1
2017-Sep-19 03:59N 29°46' W 095°05'0 0.2
2017-Sep-19 02:05N 29°46' W 095°05'3 0.6
2017-Sep-18 21:20N 29°44' W 095°08'2 6.5
2017-Sep-18 21:00N 29°45' W 095°10'4 6.5
2017-Sep-18 20:23N 29°43' W 095°15'3 5.3
2017-Sep-18 19:53N 29°45' W 095°17'0 0.0
2017-Sep-18 19:22N 29°45' W 095°17'0 0.0
2017-Sep-18 19:00N 29°45' W 095°17'0 0.0
2017-Sep-18 18:29N 29°45' W 095°17'0 1.0
2017-Sep-18 18:00N 29°45' W 095°17'0 0.0
2017-Sep-18 17:30N 29°45' W 095°17'0 0.0
2017-Sep-18 17:00N 29°45' W 095°17'0 0.0
2017-Sep-18 16:30N 29°45' W 095°17'0 0.0
2017-Sep-18 16:00N 29°45' W 095°17'0 0.0
2017-Sep-18 15:30N 29°45' W 095°17'0 0.0
2017-Sep-18 15:00N 29°45' W 095°17'0 0.0
2017-Sep-18 14:30N 29°45' W 095°17'6 2.2
2017-Sep-18 11:51N 29°45' W 095°11'3 6.0
2017-Sep-18 11:26N 29°44' W 095°08'3 6.1
2017-Sep-18 11:00N 29°46' W 095°05'2 4.5
2017-Sep-18 10:30N 29°47' W 095°04'0 0.1
2017-Sep-18 09:59N 29°47' W 095°04'2 0.3
2017-Sep-18 03:51N 29°46' W 095°05'3 1.8
2017-Sep-18 02:28N 29°44' W 095°03'2 4.3
2017-Sep-18 02:01N 29°43' W 095°01'1 0.1
2017-Sep-17 20:12N 29°44' W 095°01'0 0.0
2017-Sep-17 19:54N 29°44' W 095°01'0 0.9
2017-Sep-17 19:24N 29°44' W 095°01'0 0.0
2017-Sep-17 18:59N 29°44' W 095°01'0 0.7
2017-Sep-17 18:20N 29°44' W 095°01'0 0.0
2017-Sep-17 18:00N 29°44' W 095°01'0 0.0
2017-Sep-17 17:30N 29°44' W 095°01'0 0.0
2017-Sep-17 17:00N 29°44' W 095°01'0 0.0
2017-Sep-17 16:11N 29°44' W 095°01'0 0.1
2017-Sep-17 15:58N 29°44' W 095°01'0 0.0
2017-Sep-17 15:19N 29°44' W 095°01'0 0.0
2017-Sep-17 14:59N 29°44' W 095°01'0 0.0
2017-Sep-17 13:53N 29°44' W 095°01'0 0.0
2017-Sep-17 12:03N 29°44' W 095°01'0 0.0
2017-Sep-17 11:45N 29°44' W 095°01'0 0.0
2017-Sep-17 11:26N 29°44' W 095°01'0 0.0
2017-Sep-17 10:46N 29°44' W 095°01'0 0.0
2017-Sep-17 09:43N 29°44' W 095°01'1 0.1
2017-Sep-16 23:26N 29°43' W 095°01'2 4.8
2017-Sep-16 23:00N 29°44' W 095°03'3 5.0
2017-Sep-16 22:23N 29°47' W 095°04'3 0.1
2017-Sep-15 20:56N 29°45' W 095°06'3 5.4
2017-Sep-15 20:27N 29°47' W 095°04'0 0.0
2017-Sep-15 19:54N 29°47' W 095°04'0 0.1
2017-Sep-15 18:44N 29°47' W 095°04'0 0.1
2017-Sep-15 18:30N 29°47' W 095°04'0 0.0
2017-Sep-15 18:00N 29°47' W 095°04'0 0.0
2017-Sep-15 17:30N 29°47' W 095°04'1 1.7
2017-Sep-15 16:56N 29°47' W 095°05'3 2.5
2017-Sep-15 15:45N 29°44' W 095°07'0 0.9
2017-Sep-15 15:19N 29°44' W 095°07'0 0.0
2017-Sep-15 14:55N 29°44' W 095°07'0 0.0
2017-Sep-15 13:28N 29°44' W 095°07'0 0.1
2017-Sep-15 10:56N 29°44' W 095°07'3 6.3
2017-Sep-15 10:29N 29°46' W 095°05'3 0.3
2017-Sep-15 01:19N 29°44' W 095°07'2 6.2
2017-Sep-15 01:00N 29°46' W 095°05'0 0.0
2017-Sep-14 21:51N 29°46' W 095°05'1 0.0
2017-Sep-14 08:37N 29°45' W 095°06'1 5.5
2017-Sep-14 08:30N 29°46' W 095°05'1 0.3
2017-Sep-14 06:29N 29°46' W 095°06'1 2.4
2017-Sep-14 05:57N 29°46' W 095°05'1 1.8
2017-Sep-14 05:28N 29°47' W 095°04'1 0.2
2017-Sep-14 02:52N 29°47' W 095°04'0 0.2
2017-Sep-14 02:25N 29°47' W 095°04'0 0.1
2017-Sep-14 02:00N 29°47' W 095°04'0 0.2
2017-Sep-13 23:53N 29°47' W 095°04'1 2.9
2017-Sep-13 23:25N 29°46' W 095°05'4 7.0
2017-Sep-13 22:51N 29°43' W 095°01'2 6.9
2017-Sep-13 22:30N 29°41' W 094°59'4 7.9
2017-Sep-13 22:00N 29°38' W 094°58'  
Track history (hours):
 
Tides and Currents Weather Stations Pressure Air Temp Water Temp Dewpoint Dewpoint Depression Visibility Wind Speed Wind Dir Waves Ship Positions

M/V Ian Earle

Owner: The Tug Ian Earle, L.L.C., Channelview, TX. More information available from US FCC via Universal Licensing System and Coast Guard Vessel Documentation Center.

Last reported at 2017-Sep-23 21:58 UTC. Time now 2017-Sep-24 00:00 UTC.
Position N 29°44' W 095°07'.

Length 23 m.

Type: Other ship. MMSI: 367316480.

Date/timePositionNaut miles runAvg speedWind from/ knotsBaromVisibWave heightAir tempDewpointWater temp
2017-Sep-23 21:58N 29°44' W 095°07'3 5.5
2017-Sep-23 21:30N 29°44' W 095°10'2 3.8
2017-Sep-23 21:00N 29°45' W 095°12'2 3.1
2017-Sep-23 20:29N 29°45' W 095°10'3 5.2
2017-Sep-23 19:56N 29°44' W 095°07'2 0.1
2017-Sep-22 01:13N 29°45' W 095°04'2 7.1
2017-Sep-22 01:00N 29°44' W 095°03'0 0.3
2017-Sep-22 00:30N 29°44' W 095°03'0 0.2
2017-Sep-22 00:00N 29°44' W 095°03'0 0.0
2017-Sep-21 23:30N 29°44' W 095°03'0 0.0
2017-Sep-21 23:00N 29°44' W 095°03'1 1.8
2017-Sep-21 22:30N 29°45' W 095°04'1 1.2
2017-Sep-21 22:00N 29°45' W 095°04'1 0.3
2017-Sep-21 16:40N 29°46' W 095°05'1 5.7
2017-Sep-21 16:29N 29°47' W 095°05'1 1.4
2017-Sep-21 15:45N 29°47' W 095°04'0 0.0
2017-Sep-21 15:19N 29°47' W 095°04'0 0.0
2017-Sep-21 15:00N 29°47' W 095°04'0 0.0
2017-Sep-21 14:30N 29°47' W 095°04'0 0.0
2017-Sep-21 14:00N 29°47' W 095°04'0 0.1
2017-Sep-21 12:44N 29°47' W 095°04'0 0.1
2017-Sep-21 12:30N 29°47' W 095°04'0 0.1
2017-Sep-21 11:28N 29°47' W 095°04'0 0.0
2017-Sep-21 10:42N 29°47' W 095°04'0 0.0
2017-Sep-21 10:30N 29°47' W 095°04'0 0.0
2017-Sep-21 09:50N 29°47' W 095°04'0 0.0
2017-Sep-21 09:27N 29°47' W 095°04'2 2.4
2017-Sep-21 08:49N 29°46' W 095°05'0 0.6
2017-Sep-21 08:01N 29°46' W 095°04'4 6.3
2017-Sep-21 07:25N 29°43' W 095°01'3 6.4
2017-Sep-21 07:01N 29°41' W 094°59'4 7.8
2017-Sep-21 06:31N 29°38' W 094°58'2 4.7
2017-Sep-21 06:00N 29°37' W 095°00'1 1.8
2017-Sep-21 05:31N 29°37' W 095°01'0 0.0
2017-Sep-21 05:01N 29°37' W 095°01'0 0.0
2017-Sep-21 04:30N 29°37' W 095°01'0 0.0
2017-Sep-21 04:01N 29°37' W 095°01'0 0.0
2017-Sep-21 03:31N 29°37' W 095°01'0 0.0
2017-Sep-21 03:00N 29°37' W 095°01'0 0.0
2017-Sep-21 02:30N 29°37' W 095°01'0 0.0
2017-Sep-21 02:00N 29°37' W 095°01'0 0.0
2017-Sep-21 01:31N 29°37' W 095°01'0 0.0
2017-Sep-21 01:00N 29°37' W 095°01'0 0.0
2017-Sep-21 00:31N 29°37' W 095°01'0 0.0
2017-Sep-21 00:00N 29°37' W 095°01'0 0.0
2017-Sep-20 23:31N 29°37' W 095°01'0 0.0
2017-Sep-20 23:01N 29°37' W 095°01'0 0.0
2017-Sep-20 22:30N 29°37' W 095°01'0 0.4
2017-Sep-20 22:00N 29°37' W 095°01'0 0.3
2017-Sep-20 21:31N 29°37' W 095°01'0 0.0
2017-Sep-20 21:00N 29°37' W 095°01'0 0.0
2017-Sep-20 20:30N 29°37' W 095°01'0 0.1
2017-Sep-20 20:01N 29°37' W 095°01'3 5.3
2017-Sep-20 19:31N 29°37' W 094°58'3 6.2
2017-Sep-20 19:01N 29°40' W 094°59'4 7.4
2017-Sep-20 18:30N 29°43' W 095°01'3 6.0
2017-Sep-20 17:58N 29°45' W 095°04'2 4.3
2017-Sep-20 17:29N 29°45' W 095°06'3 5.7
2017-Sep-20 17:00N 29°44' W 095°09'2 3.2
2017-Sep-20 16:30N 29°45' W 095°11'0 0.0
2017-Sep-20 16:00N 29°45' W 095°11'2 4.7
2017-Sep-20 15:31N 29°44' W 095°13'3 4.3
2017-Sep-20 14:43N 29°45' W 095°17'0 0.1
2017-Sep-20 14:00N 29°45' W 095°17'0 0.0
2017-Sep-20 08:43N 29°45' W 095°17'0 0.0
2017-Sep-20 08:30N 29°45' W 095°17'0 0.0
2017-Sep-20 07:57N 29°45' W 095°17'0 0.0
2017-Sep-20 07:29N 29°45' W 095°17'0 0.0
2017-Sep-20 07:00N 29°45' W 095°17'0 0.0
2017-Sep-20 06:31N 29°45' W 095°17'0 0.0
2017-Sep-20 06:00N 29°45' W 095°17'0 0.0
2017-Sep-20 05:28N 29°45' W 095°17'0 0.0
2017-Sep-20 04:56N 29°45' W 095°17'0 0.0
2017-Sep-20 00:35N 29°45' W 095°17'5 3.1
2017-Sep-19 22:55N 29°45' W 095°11'0 0.0
2017-Sep-19 22:30N 29°45' W 095°11'0 0.0
2017-Sep-19 22:00N 29°45' W 095°11'0 0.0
2017-Sep-19 21:30N 29°45' W 095°11'0 0.0
2017-Sep-19 20:53N 29°45' W 095°11'0 0.0
2017-Sep-19 20:30N 29°45' W 095°11'0 0.0
2017-Sep-19 20:00N 29°45' W 095°11'0 0.0
2017-Sep-19 19:30N 29°45' W 095°11'0 0.0
2017-Sep-19 19:00N 29°45' W 095°11'0 0.0
2017-Sep-19 18:30N 29°45' W 095°11'0 0.0
2017-Sep-19 18:00N 29°45' W 095°11'0 0.0
2017-Sep-19 17:30N 29°45' W 095°11'0 0.0
2017-Sep-19 16:59N 29°45' W 095°11'0 0.0
2017-Sep-19 16:30N 29°45' W 095°11'0 0.0
2017-Sep-19 15:55N 29°45' W 095°11'1 0.8
2017-Sep-19 15:13N 29°45' W 095°11'1 3.0
2017-Sep-19 14:59N 29°45' W 095°10'2 3.4
2017-Sep-19 14:30N 29°44' W 095°08'1 0.6
2017-Sep-19 12:35N 29°44' W 095°07'1 5.0
2017-Sep-19 12:27N 29°45' W 095°06'2 4.0
2017-Sep-19 11:56N 29°46' W 095°05'1 3.1
2017-Sep-19 11:29N 29°47' W 095°04'4 2.0
2017-Sep-19 09:31N 29°44' W 095°07'0 5.6
2017-Sep-19 09:30N 29°44' W 095°07'3 5.5
2017-Sep-19 09:00N 29°45' W 095°10'3 5.0
2017-Sep-19 08:22N 29°44' W 095°13'0 0.2
2017-Sep-19 06:22N 29°44' W 095°14'2 5.2
2017-Sep-19 05:59N 29°45' W 095°12'2 2.0
2017-Sep-19 05:12N 29°45' W 095°10'1 3.3
2017-Sep-19 04:56N 29°44' W 095°09'3 4.4
2017-Sep-19 04:19N 29°45' W 095°06'1 3.1
2017-Sep-19 03:59N 29°46' W 095°05'0 0.2
2017-Sep-19 02:05N 29°46' W 095°05'3 0.6
2017-Sep-18 21:20N 29°44' W 095°08'2 6.5
2017-Sep-18 21:00N 29°45' W 095°10'4 6.5
2017-Sep-18 20:23N 29°43' W 095°15'3 5.3
2017-Sep-18 19:53N 29°45' W 095°17'0 0.0
2017-Sep-18 19:22N 29°45' W 095°17'0 0.0
2017-Sep-18 19:00N 29°45' W 095°17'0 0.0
2017-Sep-18 18:29N 29°45' W 095°17'0 1.0
2017-Sep-18 18:00N 29°45' W 095°17'0 0.0
2017-Sep-18 17:30N 29°45' W 095°17'0 0.0
2017-Sep-18 17:00N 29°45' W 095°17'0 0.0
2017-Sep-18 16:30N 29°45' W 095°17'0 0.0
2017-Sep-18 16:00N 29°45' W 095°17'0 0.0
2017-Sep-18 15:30N 29°45' W 095°17'0 0.0
2017-Sep-18 15:00N 29°45' W 095°17'0 0.0
2017-Sep-18 14:30N 29°45' W 095°17'6 2.2
2017-Sep-18 11:51N 29°45' W 095°11'3 6.0
2017-Sep-18 11:26N 29°44' W 095°08'3 6.1
2017-Sep-18 11:00N 29°46' W 095°05'2 4.5
2017-Sep-18 10:30N 29°47' W 095°04'0 0.1
2017-Sep-18 09:59N 29°47' W 095°04'2 0.3
2017-Sep-18 03:51N 29°46' W 095°05'3 1.8
2017-Sep-18 02:28N 29°44' W 095°03'2 4.3
2017-Sep-18 02:01N 29°43' W 095°01'1 0.1
2017-Sep-17 20:12N 29°44' W 095°01'0 0.0
2017-Sep-17 19:54N 29°44' W 095°01'0 0.9
2017-Sep-17 19:24N 29°44' W 095°01'0 0.0
2017-Sep-17 18:59N 29°44' W 095°01'0 0.7
2017-Sep-17 18:20N 29°44' W 095°01'0 0.0
2017-Sep-17 18:00N 29°44' W 095°01'0 0.0
2017-Sep-17 17:30N 29°44' W 095°01'0 0.0
2017-Sep-17 17:00N 29°44' W 095°01'0 0.0
2017-Sep-17 16:11N 29°44' W 095°01'0 0.1
2017-Sep-17 15:58N 29°44' W 095°01'0 0.0
2017-Sep-17 15:19N 29°44' W 095°01'0 0.0
2017-Sep-17 14:59N 29°44' W 095°01'0 0.0
2017-Sep-17 13:53N 29°44' W 095°01'0 0.0
2017-Sep-17 12:03N 29°44' W 095°01'0 0.0
2017-Sep-17 11:45N 29°44' W 095°01'0 0.0
2017-Sep-17 11:26N 29°44' W 095°01'0 0.0
2017-Sep-17 10:46N 29°44' W 095°01'0 0.0
2017-Sep-17 09:43N 29°44' W 095°01'1 0.1
2017-Sep-16 23:26N 29°43' W 095°01'2 4.8
2017-Sep-16 23:00N 29°44' W 095°03'3 5.0
2017-Sep-16 22:23N 29°47' W 095°04'3 0.1
2017-Sep-15 20:56N 29°45' W 095°06'3 5.4
2017-Sep-15 20:27N 29°47' W 095°04'0 0.0
2017-Sep-15 19:54N 29°47' W 095°04'0 0.1
2017-Sep-15 18:44N 29°47' W 095°04'0 0.1
2017-Sep-15 18:30N 29°47' W 095°04'0 0.0
2017-Sep-15 18:00N 29°47' W 095°04'0 0.0
2017-Sep-15 17:30N 29°47' W 095°04'1 1.7
2017-Sep-15 16:56N 29°47' W 095°05'3 2.5
2017-Sep-15 15:45N 29°44' W 095°07'0 0.9
2017-Sep-15 15:19N 29°44' W 095°07'0 0.0
2017-Sep-15 14:55N 29°44' W 095°07'0 0.0
2017-Sep-15 13:28N 29°44' W 095°07'0 0.1
2017-Sep-15 10:56N 29°44' W 095°07'3 6.3
2017-Sep-15 10:29N 29°46' W 095°05'3 0.3
2017-Sep-15 01:19N 29°44' W 095°07'2 6.2
2017-Sep-15 01:00N 29°46' W 095°05'0 0.0
2017-Sep-14 21:51N 29°46' W 095°05'1 0.0
2017-Sep-14 08:37N 29°45' W 095°06'1 5.5
2017-Sep-14 08:30N 29°46' W 095°05'1 0.3
2017-Sep-14 06:29N 29°46' W 095°06'1 2.4
2017-Sep-14 05:57N 29°46' W 095°05'1 1.8
2017-Sep-14 05:28N 29°47' W 095°04'1 0.2
2017-Sep-14 02:52N 29°47' W 095°04'0 0.2
2017-Sep-14 02:25N 29°47' W 095°04'0 0.1
2017-Sep-14 02:00N 29°47' W 095°04'0 0.2
2017-Sep-13 23:53N 29°47' W 095°04'1 2.9
2017-Sep-13 23:25N 29°46' W 095°05'4 7.0
2017-Sep-13 22:51N 29°43' W 095°01'2 6.9
2017-Sep-13 22:30N 29°41' W 094°59'4 7.9
2017-Sep-13 22:00N 29°38' W 094°58'  

Dump ship's entire track history